Casper, WY

10:36 PM MST on December 24, 2014 (GMT -0700)
Casper Mountain Foothills | Change Station
CLOSE
Current Station
Personal Weather Station
Location: Casper, WY
Elevation: 5334 ft
Nearby Weather Stations
Active Advisory: Winter Storm Warning

Elev 5334 ft 42.83 °N, 106.31 °W | Updated 1 minute ago

Overcast
Overcast
39.1 °F
Feels Like 31 °F
N
13.0
Wind Variable Wind from SW
Gusts 24.0 mph

Today
High -- | Low -- °F
--% Chance of Precip.
Yesterday
High -- | Low -- °F
Precip. -- in
7:34 AM 4:35 PM
Waxing Crescent, 13% visible
Pressure 29.45 in
Visibility 10.0 miles
Clouds Mostly Cloudy 12000 ft
Windchill 31 °F
Dew Point 20 °F
Humidity 47%
Rainfall 0.00 in
Snow Depth Not available.
UV 0 out of 12
Pollen .10 out of 12
Air Quality Not available.
Flu Activity Not available.
METAR KCPR 250453Z AUTO 22020G29KT 10SM BKN120 01/M06 A2942 RMK AO2 PK WND 22034/0354 SLP971 T00111061

More Conditions Fewer Conditions

Pressure 29.45 in
Visibility 10.0 miles
Clouds Mostly Cloudy 12000 ft
Windchill 31 °F
Dew Point 20 °F
Humidity 47%
Rainfall 0.00 in
Snow Depth Not available.
UV 0 out of 12
Pollen .10 out of 12
Air Quality Not available.
Flu Activity Not available.
METAR KCPR 250453Z AUTO 22020G29KT 10SM BKN120 01/M06 A2942 RMK AO2 PK WND 22034/0354 SLP971 T00111061

More Conditions Fewer Conditions

10-Day Weather Forecast

Almanac

Astronomy

Dec. 24, 2014 Rise Set
Actual Time
Civil Twilight
Nautical Twilight
Astronomical Twilight
Moon
Length of Visible Light
Length of Day
Tomorrow will be .
, % of the Moon is Illuminated

Today's Extremes

State Highs State Lows

Community

WunderPhotos

Upload Photos

1,780,244 photos uploaded!

WunderBlogs® & News

Nearby

Air Quality

  Air Quality AQ Index Pollutant
Not available.

Snow Depth

Station Depth Elevation

Earthquake Activity

City Distance Mag. Time & Date
Minimum magnitude displayed is 2.5.

Coastal Water Temperatures

Place Temperature

Nearby Weather Stations